Small, Idaho
Current Conditions -  °F | °C
As of 3:53 AM on Friday 24 Oct 2014 (Local Time) from KRXE Reporting Station
Overcast Overcast  
Wind Chill: 51°   Ceiling: 9000
Heat Index: 51°   Visibility: 10mi
Dew Point: 33°   Wind: 10mph
Humidity: 50%   Direction: 190°S
Pressure: 30.11"   Gusts: 20mph
Location:  44.2396°N, 112.579°W
Report Text: KRXE 240953Z AUTO 19009G17KT 10SM OVC090 11/01 A3011 RMK AO2 SLP175 T01060006
Loading
Personal Weather Stations






























Interactive Weather Map
Tropical Storm Tracking
New forecast layout! Learn more

10-Day Weather Forecast

Advertisements
Track Severe Weather on mobile